sensor_id;sensor_type;location;lat;lon;timestamp;P1;durP1;ratioP1;P2;durP2;ratioP2
41221;SDS011;26952;42.884;23.918;2022-08-01T00:02:26;103.43;;;97.88;;
41221;SDS011;26952;42.884;23.918;2022-08-01T00:04:56;103.22;;;97.53;;
41221;SDS011;26952;42.884;23.918;2022-08-01T00:07:21;99.13;;;93.78;;
41221;SDS011;26952;42.884;23.918;2022-08-01T00:09:47;105.95;;;100.07;;
41221;SDS011;26952;42.884;23.918;2022-08-01T00:12:13;104.65;;;98.97;;
41221;SDS011;26952;42.884;23.918;2022-08-01T00:14:38;97.05;;;91.57;;
41221;SDS011;26952;42.884;23.918;2022-08-01T00:17:03;90.30;;;85.60;;
41221;SDS011;26952;42.884;23.918;2022-08-01T00:19:29;98.38;;;93.18;;
41221;SDS011;26952;42.884;23.918;2022-08-01T00:21:54;103.60;;;98.00;;
41221;SDS011;26952;42.884;23.918;2022-08-01T00:24:20;101.82;;;96.13;;
41221;SDS011;26952;42.884;23.918;2022-08-01T00:26:45;101.35;;;95.80;;
41221;SDS011;26952;42.884;23.918;2022-08-01T00:29:11;107.15;;;100.95;;
41221;SDS011;26952;42.884;23.918;2022-08-01T00:31:36;105.60;;;99.72;;
41221;SDS011;26952;42.884;23.918;2022-08-01T00:34:01;99.57;;;94.18;;
41221;SDS011;26952;42.884;23.918;2022-08-01T00:36:27;102.25;;;96.63;;
41221;SDS011;26952;42.884;23.918;2022-08-01T00:38:52;102.30;;;96.45;;
41221;SDS011;26952;42.884;23.918;2022-08-01T00:41:18;106.38;;;100.40;;
41221;SDS011;26952;42.884;23.918;2022-08-01T00:43:43;115.22;;;108.50;;
41221;SDS011;26952;42.884;23.918;2022-08-01T00:46:09;109.13;;;103.15;;
41221;SDS011;26952;42.884;23.918;2022-08-01T00:48:34;106.32;;;100.35;;
41221;SDS011;26952;42.884;23.918;2022-08-01T00:50:59;101.63;;;96.03;;
41221;SDS011;26952;42.884;23.918;2022-08-01T00:53:25;97.68;;;92.30;;
41221;SDS011;26952;42.884;23.918;2022-08-01T00:55:51;106.28;;;100.38;;
41221;SDS011;26952;42.884;23.918;2022-08-01T00:58:17;105.30;;;99.43;;
41221;SDS011;26952;42.884;23.918;2022-08-01T01:00:42;105.25;;;98.95;;
41221;SDS011;26952;42.884;23.918;2022-08-01T01:03:08;108.13;;;102.15;;
41221;SDS011;26952;42.884;23.918;2022-08-01T01:05:36;104.53;;;98.80;;
41221;SDS011;26952;42.884;23.918;2022-08-01T01:08:21;105.07;;;99.43;;
41221;SDS011;26952;42.884;23.918;2022-08-01T01:10:54;102.93;;;97.43;;
41221;SDS011;26952;42.884;23.918;2022-08-01T01:13:38;104.22;;;98.47;;
41221;SDS011;26952;42.884;23.918;2022-08-01T01:16:12;103.28;;;97.75;;
41221;SDS011;26952;42.884;23.918;2022-08-01T01:18:45;104.85;;;99.25;;
41221;SDS011;26952;42.884;23.918;2022-08-01T01:24:00;91.90;;;87.00;;
41221;SDS011;26952;42.884;23.918;2022-08-01T01:34:22;85.78;;;81.35;;
41221;SDS011;26952;42.884;23.918;2022-08-01T01:36:49;96.22;;;90.95;;
41221;SDS011;26952;42.884;23.918;2022-08-01T01:39:17;96.50;;;91.35;;
41221;SDS011;26952;42.884;23.918;2022-08-01T01:41:44;93.25;;;87.90;;
41221;SDS011;26952;42.884;23.918;2022-08-01T01:44:11;96.97;;;91.57;;
41221;SDS011;26952;42.884;23.918;2022-08-01T01:46:40;94.68;;;89.65;;
41221;SDS011;26952;42.884;23.918;2022-08-01T01:49:06;95.13;;;89.93;;
41221;SDS011;26952;42.884;23.918;2022-08-01T01:51:35;89.30;;;84.50;;
41221;SDS011;26952;42.884;23.918;2022-08-01T01:54:02;101.35;;;95.80;;
41221;SDS011;26952;42.884;23.918;2022-08-01T01:56:29;98.95;;;93.50;;
41221;SDS011;26952;42.884;23.918;2022-08-01T01:58:57;98.35;;;92.95;;
41221;SDS011;26952;42.884;23.918;2022-08-01T02:01:25;106.90;;;100.90;;
41221;SDS011;26952;42.884;23.918;2022-08-01T02:03:53;102.07;;;96.60;;
41221;SDS011;26952;42.884;23.918;2022-08-01T02:06:22;100.93;;;95.22;;
41221;SDS011;26952;42.884;23.918;2022-08-01T02:08:51;106.03;;;99.63;;
41221;SDS011;26952;42.884;23.918;2022-08-01T02:11:19;102.78;;;97.32;;
41221;SDS011;26952;42.884;23.918;2022-08-01T02:13:58;91.18;;;86.30;;
41221;SDS011;26952;42.884;23.918;2022-08-01T02:16:26;84.32;;;79.97;;
41221;SDS011;26952;42.884;23.918;2022-08-01T02:18:54;89.35;;;84.85;;
41221;SDS011;26952;42.884;23.918;2022-08-01T02:21:23;87.93;;;83.22;;
41221;SDS011;26952;42.884;23.918;2022-08-01T02:23:53;92.68;;;88.00;;
41221;SDS011;26952;42.884;23.918;2022-08-01T02:26:25;90.55;;;85.80;;
41221;SDS011;26952;42.884;23.918;2022-08-01T02:31:27;89.60;;;84.78;;
41221;SDS011;26952;42.884;23.918;2022-08-01T02:33:59;90.80;;;86.15;;
41221;SDS011;26952;42.884;23.918;2022-08-01T02:36:30;84.85;;;80.57;;
41221;SDS011;26952;42.884;23.918;2022-08-01T02:39:00;78.88;;;74.88;;
41221;SDS011;26952;42.884;23.918;2022-08-01T02:41:28;86.47;;;82.07;;
41221;SDS011;26952;42.884;23.918;2022-08-01T02:43:58;84.45;;;80.15;;
41221;SDS011;26952;42.884;23.918;2022-08-01T02:46:33;85.07;;;80.75;;
41221;SDS011;26952;42.884;23.918;2022-08-01T02:49:05;84.32;;;80.05;;
41221;SDS011;26952;42.884;23.918;2022-08-01T02:51:34;80.78;;;76.47;;
41221;SDS011;26952;42.884;23.918;2022-08-01T02:54:01;78.50;;;74.40;;
41221;SDS011;26952;42.884;23.918;2022-08-01T02:56:29;85.18;;;80.80;;
41221;SDS011;26952;42.884;23.918;2022-08-01T02:59:07;76.65;;;72.57;;
41221;SDS011;26952;42.884;23.918;2022-08-01T03:01:37;81.25;;;77.15;;
41221;SDS011;26952;42.884;23.918;2022-08-01T03:04:04;78.80;;;74.90;;
41221;SDS011;26952;42.884;23.918;2022-08-01T03:06:31;78.82;;;74.85;;
41221;SDS011;26952;42.884;23.918;2022-08-01T03:08:58;85.70;;;81.18;;
41221;SDS011;26952;42.884;23.918;2022-08-01T03:11:26;84.35;;;80.15;;
41221;SDS011;26952;42.884;23.918;2022-08-01T03:13:53;81.20;;;77.10;;
41221;SDS011;26952;42.884;23.918;2022-08-01T03:16:21;80.93;;;76.85;;
41221;SDS011;26952;42.884;23.918;2022-08-01T03:18:49;84.25;;;79.85;;
41221;SDS011;26952;42.884;23.918;2022-08-01T03:21:19;86.97;;;82.47;;
41221;SDS011;26952;42.884;23.918;2022-08-01T03:23:47;91.65;;;86.88;;
41221;SDS011;26952;42.884;23.918;2022-08-01T03:26:15;100.68;;;95.28;;
41221;SDS011;26952;42.884;23.918;2022-08-01T03:28:41;104.18;;;98.63;;
41221;SDS011;26952;42.884;23.918;2022-08-01T03:31:09;99.53;;;94.10;;
41221;SDS011;26952;42.884;23.918;2022-08-01T03:33:37;99.22;;;93.97;;
41221;SDS011;26952;42.884;23.918;2022-08-01T03:36:02;97.05;;;91.40;;
41221;SDS011;26952;42.884;23.918;2022-08-01T03:38:30;93.70;;;88.85;;
41221;SDS011;26952;42.884;23.918;2022-08-01T03:41:07;95.45;;;90.53;;
41221;SDS011;26952;42.884;23.918;2022-08-01T03:43:38;90.32;;;85.85;;
41221;SDS011;26952;42.884;23.918;2022-08-01T03:46:07;97.35;;;92.22;;
41221;SDS011;26952;42.884;23.918;2022-08-01T03:48:39;100.70;;;95.25;;
41221;SDS011;26952;42.884;23.918;2022-08-01T03:51:07;108.15;;;102.43;;
41221;SDS011;26952;42.884;23.918;2022-08-01T03:53:34;100.43;;;95.13;;
41221;SDS011;26952;42.884;23.918;2022-08-01T03:56:03;87.05;;;82.45;;
41221;SDS011;26952;42.884;23.918;2022-08-01T04:00:59;66.50;;;63.15;;
41221;SDS011;26952;42.884;23.918;2022-08-01T04:03:26;105.20;;;99.03;;
41221;SDS011;26952;42.884;23.918;2022-08-01T04:05:52;83.63;;;79.22;;
41221;SDS011;26952;42.884;23.918;2022-08-01T04:08:18;101.65;;;96.00;;
41221;SDS011;26952;42.884;23.918;2022-08-01T04:10:43;100.70;;;95.55;;
41221;SDS011;26952;42.884;23.918;2022-08-01T04:13:09;96.03;;;91.05;;
41221;SDS011;26952;42.884;23.918;2022-08-01T04:15:34;97.53;;;92.30;;
41221;SDS011;26952;42.884;23.918;2022-08-01T04:17:59;90.25;;;85.43;;
41221;SDS011;26952;42.884;23.918;2022-08-01T04:20:25;83.70;;;79.45;;
41221;SDS011;26952;42.884;23.918;2022-08-01T04:22:50;92.80;;;87.85;;
41221;SDS011;26952;42.884;23.918;2022-08-01T04:25:26;109.00;;;103.22;;
41221;SDS011;26952;42.884;23.918;2022-08-01T04:27:58;109.22;;;103.65;;
41221;SDS011;26952;42.884;23.918;2022-08-01T04:30:27;105.30;;;99.85;;
41221;SDS011;26952;42.884;23.918;2022-08-01T04:32:56;116.13;;;109.63;;
41221;SDS011;26952;42.884;23.918;2022-08-01T04:35:24;111.95;;;105.65;;
41221;SDS011;26952;42.884;23.918;2022-08-01T04:37:51;101.85;;;96.38;;
41221;SDS011;26952;42.884;23.918;2022-08-01T04:40:18;105.30;;;99.45;;
41221;SDS011;26952;42.884;23.918;2022-08-01T04:42:47;104.28;;;98.82;;
41221;SDS011;26952;42.884;23.918;2022-08-01T04:45:14;115.18;;;109.28;;
41221;SDS011;26952;42.884;23.918;2022-08-01T04:47:40;121.10;;;114.68;;
41221;SDS011;26952;42.884;23.918;2022-08-01T04:50:07;128.25;;;121.43;;
41221;SDS011;26952;42.884;23.918;2022-08-01T04:52:34;129.30;;;122.30;;
41221;SDS011;26952;42.884;23.918;2022-08-01T04:55:00;115.28;;;109.50;;
41221;SDS011;26952;42.884;23.918;2022-08-01T04:57:26;106.72;;;100.88;;
41221;SDS011;26952;42.884;23.918;2022-08-01T04:59:52;102.60;;;97.07;;
41221;SDS011;26952;42.884;23.918;2022-08-01T05:02:22;99.55;;;94.28;;
41221;SDS011;26952;42.884;23.918;2022-08-01T05:04:47;93.18;;;88.25;;
41221;SDS011;26952;42.884;23.918;2022-08-01T05:07:13;86.13;;;81.80;;
41221;SDS011;26952;42.884;23.918;2022-08-01T05:09:41;94.03;;;89.15;;
41221;SDS011;26952;42.884;23.918;2022-08-01T05:12:07;75.70;;;72.00;;
41221;SDS011;26952;42.884;23.918;2022-08-01T05:14:34;73.65;;;70.05;;
41221;SDS011;26952;42.884;23.918;2022-08-01T05:17:00;75.32;;;71.63;;
41221;SDS011;26952;42.884;23.918;2022-08-01T05:19:31;91.47;;;86.88;;
41221;SDS011;26952;42.884;23.918;2022-08-01T05:21:57;88.60;;;84.10;;
41221;SDS011;26952;42.884;23.918;2022-08-01T05:24:25;76.18;;;72.32;;
41221;SDS011;26952;42.884;23.918;2022-08-01T05:26:53;71.45;;;67.78;;
41221;SDS011;26952;42.884;23.918;2022-08-01T05:29:19;71.05;;;67.53;;
41221;SDS011;26952;42.884;23.918;2022-08-01T05:31:44;79.30;;;75.30;;
41221;SDS011;26952;42.884;23.918;2022-08-01T05:34:09;89.25;;;84.68;;
41221;SDS011;26952;42.884;23.918;2022-08-01T05:36:35;96.70;;;91.72;;
41221;SDS011;26952;42.884;23.918;2022-08-01T05:39:02;96.35;;;91.35;;
41221;SDS011;26952;42.884;23.918;2022-08-01T05:41:28;96.57;;;91.15;;
41221;SDS011;26952;42.884;23.918;2022-08-01T05:43:53;93.70;;;88.90;;
41221;SDS011;26952;42.884;23.918;2022-08-01T05:46:18;111.38;;;105.35;;
41221;SDS011;26952;42.884;23.918;2022-08-01T05:48:44;119.80;;;113.28;;
41221;SDS011;26952;42.884;23.918;2022-08-01T05:51:09;117.35;;;110.70;;
41221;SDS011;26952;42.884;23.918;2022-08-01T05:53:35;117.05;;;110.70;;
41221;SDS011;26952;42.884;23.918;2022-08-01T05:56:00;99.35;;;94.32;;
41221;SDS011;26952;42.884;23.918;2022-08-01T05:58:28;84.60;;;80.45;;
41221;SDS011;26952;42.884;23.918;2022-08-01T06:00:54;80.28;;;76.30;;
41221;SDS011;26952;42.884;23.918;2022-08-01T06:03:19;68.53;;;65.18;;
41221;SDS011;26952;42.884;23.918;2022-08-01T06:05:45;75.32;;;71.47;;
41221;SDS011;26952;42.884;23.918;2022-08-01T06:08:10;77.47;;;73.63;;
41221;SDS011;26952;42.884;23.918;2022-08-01T06:10:35;83.50;;;79.00;;
41221;SDS011;26952;42.884;23.918;2022-08-01T06:13:01;81.60;;;77.60;;
41221;SDS011;26952;42.884;23.918;2022-08-01T06:15:31;76.13;;;72.30;;
41221;SDS011;26952;42.884;23.918;2022-08-01T06:17:57;73.95;;;70.22;;
41221;SDS011;26952;42.884;23.918;2022-08-01T06:20:23;83.95;;;79.78;;
41221;SDS011;26952;42.884;23.918;2022-08-01T06:22:48;73.78;;;69.85;;
41221;SDS011;26952;42.884;23.918;2022-08-01T06:25:14;76.35;;;72.15;;
41221;SDS011;26952;42.884;23.918;2022-08-01T06:27:39;82.13;;;78.05;;
41221;SDS011;26952;42.884;23.918;2022-08-01T06:30:05;71.85;;;68.35;;
41221;SDS011;26952;42.884;23.918;2022-08-01T06:32:32;78.10;;;74.07;;
41221;SDS011;26952;42.884;23.918;2022-08-01T06:34:58;74.05;;;70.32;;
41221;SDS011;26952;42.884;23.918;2022-08-01T06:37:27;92.40;;;87.57;;
41221;SDS011;26952;42.884;23.918;2022-08-01T06:42:19;102.23;;;96.70;;
41221;SDS011;26952;42.884;23.918;2022-08-01T06:44:45;113.28;;;106.80;;
41221;SDS011;26952;42.884;23.918;2022-08-01T06:47:10;119.60;;;112.82;;
41221;SDS011;26952;42.884;23.918;2022-08-01T06:49:36;116.10;;;109.53;;
41221;SDS011;26952;42.884;23.918;2022-08-01T06:52:01;112.43;;;106.07;;
41221;SDS011;26952;42.884;23.918;2022-08-01T06:54:28;99.05;;;93.95;;
41221;SDS011;26952;42.884;23.918;2022-08-01T06:56:54;116.55;;;109.95;;
41221;SDS011;26952;42.884;23.918;2022-08-01T06:59:19;115.47;;;108.90;;
41221;SDS011;26952;42.884;23.918;2022-08-01T07:01:44;111.55;;;105.13;;
41221;SDS011;26952;42.884;23.918;2022-08-01T07:04:10;107.25;;;101.38;;
41221;SDS011;26952;42.884;23.918;2022-08-01T07:06:35;100.25;;;94.93;;
41221;SDS011;26952;42.884;23.918;2022-08-01T07:09:01;102.82;;;97.43;;
41221;SDS011;26952;42.884;23.918;2022-08-01T07:11:27;106.35;;;100.30;;
41221;SDS011;26952;42.884;23.918;2022-08-01T07:13:52;112.03;;;105.53;;
41221;SDS011;26952;42.884;23.918;2022-08-01T07:16:17;108.03;;;101.80;;
41221;SDS011;26952;42.884;23.918;2022-08-01T07:18:43;113.03;;;106.60;;
41221;SDS011;26952;42.884;23.918;2022-08-01T07:21:09;111.20;;;104.68;;
41221;SDS011;26952;42.884;23.918;2022-08-01T07:23:34;116.60;;;109.75;;
41221;SDS011;26952;42.884;23.918;2022-08-01T07:26:00;114.82;;;108.15;;
41221;SDS011;26952;42.884;23.918;2022-08-01T07:28:28;104.72;;;99.05;;
41221;SDS011;26952;42.884;23.918;2022-08-01T07:30:54;91.88;;;87.03;;
41221;SDS011;26952;42.884;23.918;2022-08-01T07:33:20;102.60;;;97.10;;
41221;SDS011;26952;42.884;23.918;2022-08-01T07:35:45;100.30;;;94.88;;
41221;SDS011;26952;42.884;23.918;2022-08-01T07:38:11;98.32;;;92.72;;
41221;SDS011;26952;42.884;23.918;2022-08-01T07:40:36;98.80;;;93.25;;
41221;SDS011;26952;42.884;23.918;2022-08-01T07:43:02;104.07;;;98.55;;
41221;SDS011;26952;42.884;23.918;2022-08-01T07:45:28;105.97;;;100.25;;
41221;SDS011;26952;42.884;23.918;2022-08-01T07:47:53;87.18;;;82.28;;
41221;SDS011;26952;42.884;23.918;2022-08-01T07:50:19;109.22;;;103.38;;
41221;SDS011;26952;42.884;23.918;2022-08-01T07:52:44;89.72;;;84.55;;
41221;SDS011;26952;42.884;23.918;2022-08-01T07:55:10;88.78;;;83.75;;
41221;SDS011;26952;42.884;23.918;2022-08-01T07:57:36;86.20;;;81.32;;
41221;SDS011;26952;42.884;23.918;2022-08-01T08:00:03;88.05;;;83.38;;
41221;SDS011;26952;42.884;23.918;2022-08-01T08:02:31;88.93;;;84.03;;
41221;SDS011;26952;42.884;23.918;2022-08-01T08:04:56;106.55;;;100.80;;
41221;SDS011;26952;42.884;23.918;2022-08-01T08:07:22;98.93;;;93.20;;
41221;SDS011;26952;42.884;23.918;2022-08-01T08:09:47;94.10;;;88.53;;
41221;SDS011;26952;42.884;23.918;2022-08-01T08:12:13;71.28;;;67.13;;
41221;SDS011;26952;42.884;23.918;2022-08-01T08:14:38;73.63;;;69.53;;
41221;SDS011;26952;42.884;23.918;2022-08-01T08:17:04;68.55;;;64.72;;
41221;SDS011;26952;42.884;23.918;2022-08-01T08:19:29;61.30;;;57.80;;
41221;SDS011;26952;42.884;23.918;2022-08-01T08:21:58;63.40;;;59.92;;
41221;SDS011;26952;42.884;23.918;2022-08-01T08:24:26;49.50;;;46.88;;
41221;SDS011;26952;42.884;23.918;2022-08-01T08:26:55;49.03;;;46.33;;
41221;SDS011;26952;42.884;23.918;2022-08-01T08:29:22;45.28;;;43.03;;
41221;SDS011;26952;42.884;23.918;2022-08-01T08:31:49;48.33;;;45.83;;
41221;SDS011;26952;42.884;23.918;2022-08-01T08:34:16;49.42;;;46.92;;
41221;SDS011;26952;42.884;23.918;2022-08-01T08:36:42;77.18;;;73.38;;
41221;SDS011;26952;42.884;23.918;2022-08-01T08:39:07;65.43;;;62.17;;
41221;SDS011;26952;42.884;23.918;2022-08-01T08:41:33;59.85;;;56.80;;
41221;SDS011;26952;42.884;23.918;2022-08-01T08:44:06;62.05;;;58.92;;
41221;SDS011;26952;42.884;23.918;2022-08-01T08:46:33;74.55;;;70.88;;
41221;SDS011;26952;42.884;23.918;2022-08-01T08:49:03;72.88;;;69.20;;
41221;SDS011;26952;42.884;23.918;2022-08-01T08:51:30;90.95;;;86.18;;
41221;SDS011;26952;42.884;23.918;2022-08-01T08:53:57;101.15;;;96.10;;
41221;SDS011;26952;42.884;23.918;2022-08-01T08:56:25;119.15;;;112.57;;
41221;SDS011;26952;42.884;23.918;2022-08-01T08:58:54;127.28;;;119.93;;
41221;SDS011;26952;42.884;23.918;2022-08-01T09:01:20;123.85;;;117.28;;
41221;SDS011;26952;42.884;23.918;2022-08-01T09:03:46;131.85;;;123.93;;
41221;SDS011;26952;42.884;23.918;2022-08-01T09:06:12;135.77;;;128.15;;
41221;SDS011;26952;42.884;23.918;2022-08-01T09:08:39;136.30;;;128.95;;
41221;SDS011;26952;42.884;23.918;2022-08-01T09:11:05;126.60;;;119.75;;
41221;SDS011;26952;42.884;23.918;2022-08-01T09:13:30;143.38;;;135.40;;
41221;SDS011;26952;42.884;23.918;2022-08-01T09:15:56;102.35;;;96.95;;
41221;SDS011;26952;42.884;23.918;2022-08-01T09:18:31;106.70;;;101.00;;
41221;SDS011;26952;42.884;23.918;2022-08-01T09:23:35;88.07;;;83.57;;
41221;SDS011;26952;42.884;23.918;2022-08-01T09:26:08;85.18;;;80.60;;
41221;SDS011;26952;42.884;23.918;2022-08-01T09:28:35;75.32;;;71.35;;
41221;SDS011;26952;42.884;23.918;2022-08-01T09:31:14;89.35;;;84.90;;
41221;SDS011;26952;42.884;23.918;2022-08-01T09:36:23;88.15;;;83.85;;
41221;SDS011;26952;42.884;23.918;2022-08-01T09:39:11;84.80;;;80.63;;
41221;SDS011;26952;42.884;23.918;2022-08-01T09:41:38;83.22;;;79.15;;
41221;SDS011;26952;42.884;23.918;2022-08-01T09:44:04;86.82;;;81.90;;
41221;SDS011;26952;42.884;23.918;2022-08-01T09:46:29;85.60;;;81.30;;
41221;SDS011;26952;42.884;23.918;2022-08-01T09:51:38;68.88;;;65.35;;
41221;SDS011;26952;42.884;23.918;2022-08-01T09:54:05;83.88;;;79.63;;
41221;SDS011;26952;42.884;23.918;2022-08-01T09:56:41;66.60;;;63.08;;
41221;SDS011;26952;42.884;23.918;2022-08-01T09:59:08;71.80;;;68.22;;
41221;SDS011;26952;42.884;23.918;2022-08-01T10:01:49;72.72;;;68.95;;
41221;SDS011;26952;42.884;23.918;2022-08-01T10:06:42;76.60;;;72.88;;
41221;SDS011;26952;42.884;23.918;2022-08-01T10:09:10;78.97;;;74.72;;
41221;SDS011;26952;42.884;23.918;2022-08-01T10:11:37;43.42;;;41.05;;
41221;SDS011;26952;42.884;23.918;2022-08-01T10:14:05;49.33;;;46.60;;
41221;SDS011;26952;42.884;23.918;2022-08-01T10:16:31;48.15;;;45.90;;
41221;SDS011;26952;42.884;23.918;2022-08-01T10:18:58;51.38;;;48.78;;
41221;SDS011;26952;42.884;23.918;2022-08-01T10:21:26;48.20;;;45.90;;
41221;SDS011;26952;42.884;23.918;2022-08-01T10:23:53;56.75;;;53.78;;
41221;SDS011;26952;42.884;23.918;2022-08-01T10:26:19;53.25;;;50.65;;
41221;SDS011;26952;42.884;23.918;2022-08-01T10:28:47;55.58;;;52.90;;
41221;SDS011;26952;42.884;23.918;2022-08-01T10:31:13;58.25;;;55.50;;
41221;SDS011;26952;42.884;23.918;2022-08-01T10:33:41;69.15;;;65.68;;
41221;SDS011;26952;42.884;23.918;2022-08-01T10:36:07;72.38;;;68.63;;
41221;SDS011;26952;42.884;23.918;2022-08-01T10:38:34;62.58;;;59.35;;
41221;SDS011;26952;42.884;23.918;2022-08-01T10:40:59;64.90;;;61.63;;
41221;SDS011;26952;42.884;23.918;2022-08-01T10:43:27;67.47;;;64.00;;
41221;SDS011;26952;42.884;23.918;2022-08-01T10:45:53;74.13;;;70.43;;
41221;SDS011;26952;42.884;23.918;2022-08-01T10:51:15;37.90;;;35.95;;
41221;SDS011;26952;42.884;23.918;2022-08-01T10:53:48;33.95;;;32.25;;
41221;SDS011;26952;42.884;23.918;2022-08-01T10:56:16;34.50;;;32.80;;
41221;SDS011;26952;42.884;23.918;2022-08-01T10:58:42;39.40;;;37.45;;
41221;SDS011;26952;42.884;23.918;2022-08-01T11:06:26;74.82;;;71.13;;
41221;SDS011;26952;42.884;23.918;2022-08-01T11:09:03;77.28;;;73.40;;
41221;SDS011;26952;42.884;23.918;2022-08-01T11:11:30;74.80;;;71.00;;
41221;SDS011;26952;42.884;23.918;2022-08-01T11:14:03;69.88;;;66.38;;
41221;SDS011;26952;42.884;23.918;2022-08-01T11:16:32;62.60;;;59.45;;
41221;SDS011;26952;42.884;23.918;2022-08-01T11:19:03;57.55;;;54.63;;
41221;SDS011;26952;42.884;23.918;2022-08-01T11:25:09;58.35;;;55.38;;
41221;SDS011;26952;42.884;23.918;2022-08-01T11:27:22;49.65;;;47.13;;
41221;SDS011;26952;42.884;23.918;2022-08-01T11:32:33;62.35;;;59.22;;
41221;SDS011;26952;42.884;23.918;2022-08-01T11:35:11;65.43;;;61.92;;
41221;SDS011;26952;42.884;23.918;2022-08-01T11:37:36;73.93;;;69.93;;
41221;SDS011;26952;42.884;23.918;2022-08-01T11:40:36;78.32;;;74.32;;
41221;SDS011;26952;42.884;23.918;2022-08-01T11:48:23;39.65;;;37.55;;
41221;SDS011;26952;42.884;23.918;2022-08-01T11:50:52;37.13;;;35.22;;
41221;SDS011;26952;42.884;23.918;2022-08-01T11:53:18;35.78;;;33.88;;
41221;SDS011;26952;42.884;23.918;2022-08-01T11:55:53;44.08;;;41.83;;
41221;SDS011;26952;42.884;23.918;2022-08-01T11:58:23;53.50;;;50.65;;
41221;SDS011;26952;42.884;23.918;2022-08-01T12:00:57;37.47;;;35.47;;
41221;SDS011;26952;42.884;23.918;2022-08-01T12:05:57;29.05;;;27.52;;
41221;SDS011;26952;42.884;23.918;2022-08-01T12:08:26;34.85;;;33.15;;
41221;SDS011;26952;42.884;23.918;2022-08-01T12:10:58;32.95;;;31.15;;
41221;SDS011;26952;42.884;23.918;2022-08-01T12:13:24;37.08;;;34.97;;
41221;SDS011;26952;42.884;23.918;2022-08-01T12:15:50;31.10;;;29.52;;
41221;SDS011;26952;42.884;23.918;2022-08-01T12:18:15;52.17;;;49.45;;
41221;SDS011;26952;42.884;23.918;2022-08-01T12:20:43;44.35;;;42.10;;
41221;SDS011;26952;42.884;23.918;2022-08-01T12:23:10;33.28;;;31.55;;
41221;SDS011;26952;42.884;23.918;2022-08-01T12:25:37;39.53;;;37.33;;
41221;SDS011;26952;42.884;23.918;2022-08-01T12:28:05;38.75;;;36.80;;
41221;SDS011;26952;42.884;23.918;2022-08-01T12:30:34;47.97;;;45.53;;
41221;SDS011;26952;42.884;23.918;2022-08-01T12:33:01;46.50;;;43.95;;
41221;SDS011;26952;42.884;23.918;2022-08-01T12:35:28;41.60;;;39.55;;
41221;SDS011;26952;42.884;23.918;2022-08-01T12:37:56;40.65;;;38.60;;
41221;SDS011;26952;42.884;23.918;2022-08-01T12:40:33;46.08;;;43.38;;
41221;SDS011;26952;42.884;23.918;2022-08-01T12:43:02;42.08;;;39.97;;
41221;SDS011;26952;42.884;23.918;2022-08-01T12:45:50;39.22;;;37.15;;
41221;SDS011;26952;42.884;23.918;2022-08-01T12:48:15;38.55;;;36.60;;
41221;SDS011;26952;42.884;23.918;2022-08-01T12:50:46;44.97;;;42.60;;
41221;SDS011;26952;42.884;23.918;2022-08-01T12:53:13;32.85;;;31.05;;
41221;SDS011;26952;42.884;23.918;2022-08-01T12:55:47;30.90;;;29.13;;
41221;SDS011;26952;42.884;23.918;2022-08-01T12:58:18;32.15;;;30.33;;
41221;SDS011;26952;42.884;23.918;2022-08-01T13:00:46;28.77;;;27.38;;
41221;SDS011;26952;42.884;23.918;2022-08-01T13:03:14;27.85;;;26.48;;
41221;SDS011;26952;42.884;23.918;2022-08-01T13:05:45;25.20;;;23.88;;
41221;SDS011;26952;42.884;23.918;2022-08-01T13:08:12;40.22;;;37.78;;
41221;SDS011;26952;42.884;23.918;2022-08-01T13:10:38;36.83;;;34.95;;
41221;SDS011;26952;42.884;23.918;2022-08-01T13:13:04;44.60;;;41.95;;
41221;SDS011;26952;42.884;23.918;2022-08-01T13:15:31;36.45;;;34.45;;
41221;SDS011;26952;42.884;23.918;2022-08-01T13:18:00;35.87;;;34.07;;
41221;SDS011;26952;42.884;23.918;2022-08-01T13:20:46;33.92;;;32.13;;
41221;SDS011;26952;42.884;23.918;2022-08-01T13:23:15;44.05;;;41.75;;
41221;SDS011;26952;42.884;23.918;2022-08-01T13:25:50;39.92;;;37.70;;
41221;SDS011;26952;42.884;23.918;2022-08-01T13:28:18;46.30;;;43.95;;
41221;SDS011;26952;42.884;23.918;2022-08-01T13:33:20;41.95;;;39.90;;
41221;SDS011;26952;42.884;23.918;2022-08-01T13:35:45;42.70;;;40.55;;
41221;SDS011;26952;42.884;23.918;2022-08-01T13:38:12;36.67;;;34.80;;
41221;SDS011;26952;42.884;23.918;2022-08-01T13:40:38;44.00;;;41.72;;
41221;SDS011;26952;42.884;23.918;2022-08-01T13:43:03;42.20;;;40.08;;
41221;SDS011;26952;42.884;23.918;2022-08-01T13:45:29;46.58;;;44.20;;
41221;SDS011;26952;42.884;23.918;2022-08-01T13:47:54;40.75;;;38.65;;
41221;SDS011;26952;42.884;23.918;2022-08-01T13:50:19;40.78;;;38.53;;
41221;SDS011;26952;42.884;23.918;2022-08-01T13:52:45;46.60;;;43.88;;
41221;SDS011;26952;42.884;23.918;2022-08-01T13:55:10;36.20;;;34.40;;
41221;SDS011;26952;42.884;23.918;2022-08-01T13:57:36;37.55;;;35.65;;
41221;SDS011;26952;42.884;23.918;2022-08-01T14:00:02;38.38;;;36.42;;
41221;SDS011;26952;42.884;23.918;2022-08-01T14:02:31;35.00;;;33.20;;
41221;SDS011;26952;42.884;23.918;2022-08-01T14:04:57;32.38;;;30.77;;
41221;SDS011;26952;42.884;23.918;2022-08-01T14:07:23;35.08;;;33.30;;
41221;SDS011;26952;42.884;23.918;2022-08-01T14:09:49;35.05;;;33.17;;
41221;SDS011;26952;42.884;23.918;2022-08-01T14:12:14;36.35;;;34.50;;
41221;SDS011;26952;42.884;23.918;2022-08-01T14:14:40;31.42;;;29.83;;
41221;SDS011;26952;42.884;23.918;2022-08-01T14:17:05;35.80;;;34.00;;
41221;SDS011;26952;42.884;23.918;2022-08-01T14:19:31;35.13;;;33.30;;
41221;SDS011;26952;42.884;23.918;2022-08-01T14:21:56;39.65;;;37.55;;
41221;SDS011;26952;42.884;23.918;2022-08-01T14:24:22;33.47;;;31.58;;
41221;SDS011;26952;42.884;23.918;2022-08-01T14:26:48;35.17;;;33.45;;
41221;SDS011;26952;42.884;23.918;2022-08-01T14:29:13;36.70;;;34.75;;
41221;SDS011;26952;42.884;23.918;2022-08-01T14:31:39;36.10;;;34.25;;
41221;SDS011;26952;42.884;23.918;2022-08-01T14:34:04;34.03;;;32.28;;
41221;SDS011;26952;42.884;23.918;2022-08-01T14:36:30;34.25;;;32.35;;
41221;SDS011;26952;42.884;23.918;2022-08-01T14:38:55;32.13;;;30.50;;
41221;SDS011;26952;42.884;23.918;2022-08-01T14:41:20;35.30;;;33.38;;
41221;SDS011;26952;42.884;23.918;2022-08-01T14:43:46;41.05;;;38.88;;
41221;SDS011;26952;42.884;23.918;2022-08-01T14:46:11;36.95;;;35.05;;
41221;SDS011;26952;42.884;23.918;2022-08-01T14:48:38;39.92;;;37.88;;
41221;SDS011;26952;42.884;23.918;2022-08-01T14:51:03;42.28;;;40.13;;
41221;SDS011;26952;42.884;23.918;2022-08-01T14:53:32;44.45;;;42.10;;
41221;SDS011;26952;42.884;23.918;2022-08-01T14:55:59;39.30;;;37.28;;
41221;SDS011;26952;42.884;23.918;2022-08-01T14:58:25;41.17;;;39.03;;
41221;SDS011;26952;42.884;23.918;2022-08-01T15:00:52;40.40;;;38.22;;